Visemar One — ICNA — position and weather

sailwx.info

Track history (hours):
 
Tides and Currents Weather Stations Pressure Air Temp Water Temp Dewpoint Dewpoint Depression Visibility Wind Speed Wind Dir Waves Ship Positions

Visemar One

Last reported at 2018-Jun-19 20:00 UTC. Time now 2018-Jun-19 20:00 UTC.
Position N 39°27' W 000°20'.

Length 186 m; draft 6.9 m.

Type: Ship. MMSI: 247281400.

Date/timePositionNaut miles runAvg speedWind from/ knotsBaromVisibWave heightAir tempDewpointWater temp
2018-Jun-19 20:00N 39°27' W 000°20'0 0.0
2018-Jun-19 19:30N 39°27' W 000°20'0 0.0
2018-Jun-19 19:00N 39°27' W 000°20'0 0.2
2018-Jun-19 18:30N 39°27' W 000°19'812.1
2018-Jun-19 17:53N 39°26' W 000°10'11022.2
2018-Jun-19 12:56N 39°25' E 002°12'921.5
2018-Jun-19 12:30N 39°24' E 002°24'1020.4
2018-Jun-19 12:00N 39°29' E 002°36'4 8.4
2018-Jun-19 11:30N 39°33' E 002°38'0 0.0
2018-Jun-19 11:00N 39°33' E 002°38'0 0.0
2018-Jun-19 10:30N 39°33' E 002°38'0 0.0
2018-Jun-19 10:00N 39°33' E 002°38'0 0.0
2018-Jun-19 09:30N 39°33' E 002°38'0 0.0
2018-Jun-19 08:58N 39°33' E 002°38'0 0.0
2018-Jun-19 08:28N 39°33' E 002°38'0 0.0
2018-Jun-19 07:58N 39°33' E 002°38'0 0.0
2018-Jun-19 07:28N 39°33' E 002°38'0 0.0
2018-Jun-19 06:58N 39°33' E 002°38'0 0.0
2018-Jun-19 06:28N 39°33' E 002°38'0 0.0
2018-Jun-19 05:58N 39°33' E 002°38'0 0.0
2018-Jun-19 05:28N 39°33' E 002°38'0 0.0
2018-Jun-19 05:00N 39°33' E 002°38'0 0.0
2018-Jun-19 04:30N 39°33' E 002°38'0 0.2
2018-Jun-19 03:56N 39°33' E 002°38'1 3.1
2018-Jun-19 03:30N 39°32' E 002°39'816.3
2018-Jun-19 03:00N 39°25' E 002°32'1020.3
2018-Jun-19 02:30N 39°25' E 002°19'12220.6
2018-Jun-18 20:35N 39°26' W 000°19'1 9.8
2018-Jun-18 20:30N 39°27' W 000°19'0 0.5
2018-Jun-18 19:56N 39°27' W 000°20'0 0.0
2018-Jun-18 19:29N 39°27' W 000°20'0 0.0
2018-Jun-18 18:59N 39°27' W 000°20'0 0.0
2018-Jun-18 18:29N 39°27' W 000°20'0 0.0
2018-Jun-18 17:59N 39°27' W 000°20'0 0.0
2018-Jun-18 17:29N 39°27' W 000°20'0 0.0
2018-Jun-18 16:59N 39°27' W 000°20'1 2.8
2018-Jun-18 16:31N 39°26' W 000°18'6621.2
2018-Jun-18 13:23N 39°26' E 001°08'4821.0
2018-Jun-18 11:07N 39°25' E 002°09'320.7
2018-Jun-18 10:59N 39°25' E 002°13'1020.8
2018-Jun-18 10:29N 39°26' E 002°26'919.6
2018-Jun-18 10:00N 39°30' E 002°37'3 6.0
2018-Jun-18 09:30N 39°33' E 002°38'0 0.0
2018-Jun-18 08:58N 39°33' E 002°38'0 0.0
2018-Jun-18 08:28N 39°33' E 002°38'0 0.0
2018-Jun-18 07:58N 39°33' E 002°38'0 0.0
2018-Jun-18 07:28N 39°33' E 002°38'0 0.0
2018-Jun-18 06:58N 39°33' E 002°38'0 0.0
2018-Jun-18 06:28N 39°33' E 002°38'0 0.0
2018-Jun-18 05:58N 39°33' E 002°38'0 0.0
2018-Jun-18 05:27N 39°33' E 002°38'0 0.0
2018-Jun-18 05:00N 39°33' E 002°38'0 0.0
2018-Jun-18 04:30N 39°33' E 002°38'0 0.8
2018-Jun-18 04:00N 39°33' E 002°38'816.0
2018-Jun-18 03:30N 39°26' E 002°33'4316.4
2018-Jun-18 00:52N 40°07' E 002°14'3819.2
2018-Jun-17 22:53N 40°45' E 002°12'719.6
2018-Jun-17 22:30N 40°53' E 002°12'1019.7
2018-Jun-17 21:59N 41°03' E 002°11'919.4
2018-Jun-17 21:31N 41°12' E 002°11'917.0
2018-Jun-17 21:00N 41°20' E 002°10'0 0.8
2018-Jun-17 20:28N 41°21' E 002°10'0 0.0
2018-Jun-17 19:58N 41°21' E 002°10'0 0.0
2018-Jun-17 19:28N 41°21' E 002°10'0 0.0
2018-Jun-17 18:58N 41°21' E 002°10'0 0.0
2018-Jun-17 18:28N 41°21' E 002°10'0 0.0
2018-Jun-17 17:58N 41°21' E 002°10'0 0.0
2018-Jun-17 17:28N 41°21' E 002°10'0 0.0
2018-Jun-17 16:58N 41°21' E 002°10'0 0.0
2018-Jun-17 16:28N 41°21' E 002°10'0 0.0
2018-Jun-17 15:58N 41°21' E 002°10'0 0.0
2018-Jun-17 15:28N 41°21' E 002°10'0 0.0
2018-Jun-17 14:58N 41°21' E 002°10'0 0.0
2018-Jun-17 14:28N 41°21' E 002°10'0 0.0
2018-Jun-17 13:58N 41°21' E 002°10'0 0.0
2018-Jun-17 13:28N 41°21' E 002°10'0 0.0
2018-Jun-17 12:58N 41°21' E 002°10'0 0.0
2018-Jun-17 12:28N 41°21' E 002°10'0 0.0
2018-Jun-17 11:58N 41°21' E 002°10'0 0.0
2018-Jun-17 11:28N 41°21' E 002°10'0 0.0
2018-Jun-17 10:58N 41°21' E 002°10'0 0.0
2018-Jun-17 10:28N 41°21' E 002°10'0 0.0
2018-Jun-17 09:58N 41°21' E 002°10'0 0.0
2018-Jun-17 09:28N 41°21' E 002°10'0 0.0
2018-Jun-17 08:58N 41°21' E 002°10'0 0.0
2018-Jun-17 08:28N 41°21' E 002°10'0 0.0
2018-Jun-17 07:58N 41°21' E 002°10'0 0.0
2018-Jun-17 07:28N 41°21' E 002°10'0 0.0
2018-Jun-17 06:58N 41°21' E 002°10'0 0.0
2018-Jun-17 06:28N 41°21' E 002°10'0 0.0
2018-Jun-17 05:58N 41°21' E 002°10'0 0.0
2018-Jun-17 05:28N 41°21' E 002°10'0 0.0
2018-Jun-17 04:58N 41°21' E 002°10'0 0.0
2018-Jun-17 04:28N 41°21' E 002°10'0 0.0
2018-Jun-17 03:58N 41°21' E 002°10'0 0.0
2018-Jun-17 03:28N 41°21' E 002°10'0 0.0
2018-Jun-17 02:58N 41°21' E 002°10'0 0.0
2018-Jun-17 02:28N 41°21' E 002°10'0 0.0
2018-Jun-17 01:58N 41°21' E 002°10'0 0.0
2018-Jun-17 01:28N 41°21' E 002°10'0 0.0
2018-Jun-17 00:58N 41°21' E 002°10'0 0.0
2018-Jun-17 00:28N 41°21' E 002°10'0 0.0
2018-Jun-16 23:58N 41°21' E 002°10'0 0.0
2018-Jun-16 23:28N 41°21' E 002°10'0 0.0
2018-Jun-16 22:58N 41°21' E 002°10'0 0.0
2018-Jun-16 22:28N 41°21' E 002°10'0 0.0
2018-Jun-16 21:58N 41°21' E 002°10'0 0.0
2018-Jun-16 21:28N 41°21' E 002°10'0 0.0
2018-Jun-16 20:58N 41°21' E 002°10'0 0.0
2018-Jun-16 20:28N 41°21' E 002°10'0 0.0
2018-Jun-16 19:58N 41°21' E 002°10'0 0.0
2018-Jun-16 19:28N 41°21' E 002°10'0 0.0
2018-Jun-16 18:58N 41°21' E 002°10'0 0.0
2018-Jun-16 18:28N 41°21' E 002°10'0 0.0
2018-Jun-16 17:58N 41°21' E 002°10'0 0.0
2018-Jun-16 17:30N 41°21' E 002°10'2 4.4
2018-Jun-16 17:00N 41°19' E 002°10'815.4
2018-Jun-16 16:30N 41°11' E 002°11'1620.9
2018-Jun-16 15:45N 40°55' E 002°12'3620.8
2018-Jun-16 14:02N 40°20' E 002°17'121.6
2018-Jun-16 14:00N 40°19' E 002°17'4920.1
2018-Jun-16 11:34N 39°30' E 002°21'220.5
2018-Jun-16 11:29N 39°29' E 002°23'917.7
2018-Jun-16 11:00N 39°27' E 002°33'714.4
2018-Jun-16 10:30N 39°33' E 002°38'0 0.2
2018-Jun-16 10:00N 39°33' E 002°38'0 0.0
2018-Jun-16 09:30N 39°33' E 002°38'0 0.0
2018-Jun-16 08:57N 39°33' E 002°38'0 0.0
2018-Jun-16 08:30N 39°33' E 002°38'0 0.0
2018-Jun-16 08:00N 39°33' E 002°38'0 0.0
2018-Jun-16 07:30N 39°33' E 002°38'0 0.0
2018-Jun-16 07:00N 39°33' E 002°38'0 0.0
2018-Jun-16 06:30N 39°33' E 002°38'0 0.0
2018-Jun-16 06:00N 39°33' E 002°38'0 0.0
2018-Jun-16 05:29N 39°33' E 002°38'0 0.0
2018-Jun-16 05:00N 39°33' E 002°38'0 0.0
2018-Jun-16 04:25N 39°33' E 002°38'0 0.0
2018-Jun-16 04:00N 39°33' E 002°38'1 2.5
2018-Jun-16 03:30N 39°32' E 002°39'918.7
2018-Jun-16 03:00N 39°26' E 002°29'1220.7
2018-Jun-16 02:24N 39°26' E 002°13'2620.8
2018-Jun-16 01:10N 39°25' E 001°40'420.7
2018-Jun-16 00:57N 39°25' E 001°34'1120.6
2018-Jun-16 00:26N 39°25' E 001°21'920.6
2018-Jun-16 00:00N 39°25' E 001°09'1320.8
2018-Jun-15 23:24N 39°25' E 000°53'5120.8
2018-Jun-15 20:57N 39°26' W 000°13'511.4
2018-Jun-15 20:30N 39°27' W 000°19'0 0.1
2018-Jun-15 20:01N 39°27' W 000°20'0 0.0
2018-Jun-15 19:31N 39°27' W 000°20'0 0.0
2018-Jun-15 19:01N 39°27' W 000°20'0 0.0
2018-Jun-15 18:31N 39°27' W 000°20'0 0.0
2018-Jun-15 18:01N 39°27' W 000°20'0 0.0
2018-Jun-15 17:31N 39°27' W 000°20'0 0.0
2018-Jun-15 17:01N 39°27' W 000°20'2 4.5
2018-Jun-15 16:30N 39°26' W 000°17'917.5
2018-Jun-15 16:00N 39°25' W 000°06'4521.4
2018-Jun-15 13:55N 39°25' E 000°52'1021.6
2018-Jun-15 13:27N 39°25' E 001°05'1321.5
2018-Jun-15 12:52N 39°25' E 001°21'921.4
2018-Jun-15 12:27N 39°25' E 001°33'3321.0
2018-Jun-15 10:54N 39°25' E 002°15'820.5
2018-Jun-15 10:30N 39°25' E 002°26'1019.6
2018-Jun-15 10:00N 39°30' E 002°37'3 6.4
2018-Jun-15 09:30N 39°33' E 002°38'0 0.0
2018-Jun-15 09:00N 39°33' E 002°38'0 0.0
2018-Jun-15 08:30N 39°33' E 002°38'0 0.0
2018-Jun-15 08:00N 39°33' E 002°38'0 0.0
2018-Jun-15 07:30N 39°33' E 002°38'0 0.0
2018-Jun-15 07:00N 39°33' E 002°38'0 0.0
2018-Jun-15 06:24N 39°33' E 002°38'0 0.0
2018-Jun-15 06:00N 39°33' E 002°38'0 0.0
2018-Jun-15 05:30N 39°33' E 002°38'0 0.0
2018-Jun-15 05:00N 39°33' E 002°38'0 0.0
2018-Jun-15 04:30N 39°33' E 002°38'0 0.0
2018-Jun-15 04:00N 39°33' E 002°38'1 1.5
2018-Jun-15 03:30N 39°33' E 002°39'1019.1
2018-Jun-15 03:00N 39°26' E 002°30'12520.4
2018-Jun-14 20:51N 39°26' W 000°12'515.8
2018-Jun-14 20:30N 39°27' W 000°19'0 0.5
2018-Jun-14 19:59N 39°27' W 000°20'0 0.0
2018-Jun-14 19:29N 39°27' W 000°20'0 0.0
2018-Jun-14 18:59N 39°27' W 000°20'0 0.0
2018-Jun-14 18:29N 39°27' W 000°20'0 0.0
2018-Jun-14 17:59N 39°27' W 000°20'0 0.0
2018-Jun-14 17:29N 39°27' W 000°20'0 0.0
2018-Jun-14 16:59N 39°27' W 000°20'1 2.3
2018-Jun-14 16:30N 39°26' W 000°18'11620.7
2018-Jun-14 10:55N 39°25' E 002°11'920.8
2018-Jun-14 10:30N 39°25' E 002°23'1020.0
2018-Jun-14 10:00N 39°28' E 002°35'510.2
2018-Jun-14 09:30N 39°33' E 002°38'0 0.0
2018-Jun-14 09:00N 39°33' E 002°38'0 0.0
2018-Jun-14 08:28N 39°33' E 002°38'0 0.0
2018-Jun-14 08:00N 39°33' E 002°38'0 0.0
2018-Jun-14 07:30N 39°33' E 002°38'0 0.0
2018-Jun-14 07:00N 39°33' E 002°38'0 0.0
2018-Jun-14 06:30N 39°33' E 002°38'0 0.0
2018-Jun-14 06:00N 39°33' E 002°38'0 0.0
2018-Jun-14 05:30N 39°33' E 002°38'0 0.0
2018-Jun-14 05:00N 39°33' E 002°38'0 0.0
2018-Jun-14 04:29N 39°33' E 002°38'0 0.0
2018-Jun-14 04:00N 39°33' E 002°38'1 2.4
2018-Jun-14 03:30N 39°32' E 002°38'1020.0
2018-Jun-14 03:00N 39°26' E 002°28'12520.5
2018-Jun-13 20:53N 39°25' W 000°14'411.4
2018-Jun-13 20:31N 39°27' W 000°19'0 0.1
2018-Jun-13 19:58N 39°27' W 000°20'0 0.1
2018-Jun-13 19:28N 39°27' W 000°20'0 0.1
2018-Jun-13 18:58N 39°27' W 000°20'0 0.0
2018-Jun-13 18:28N 39°27' W 000°20'0 0.0
2018-Jun-13 17:58N 39°27' W 000°20'0 0.0
2018-Jun-13 17:28N 39°27' W 000°20'0 0.0
2018-Jun-13 17:00N 39°27' W 000°20'2 4.4
2018-Jun-13 16:30N 39°26' W 000°17'11620.5
2018-Jun-13 10:53N 39°25' E 002°12'820.8
2018-Jun-13 10:30N 39°24' E 002°23'1019.5
2018-Jun-13 10:00N 39°28' E 002°34'611.5
2018-Jun-13 09:30N 39°33' E 002°38'0 0.0
2018-Jun-13 08:58N 39°33' E 002°38'0 0.0
2018-Jun-13 08:28N 39°33' E 002°38'0 0.0
2018-Jun-13 07:58N 39°33' E 002°38'0 0.0
2018-Jun-13 07:31N 39°33' E 002°38'0 0.0
2018-Jun-13 06:58N 39°33' E 002°38'0 0.0
2018-Jun-13 06:31N 39°33' E 002°38'0 0.0
2018-Jun-13 05:58N 39°33' E 002°38'0 0.0
2018-Jun-13 05:30N 39°33' E 002°38'0 0.0
2018-Jun-13 04:59N 39°33' E 002°38'0 0.0
2018-Jun-13 04:30N 39°33' E 002°38'0 0.0
2018-Jun-13 04:00N 39°33' E 002°38'1 1.8
2018-Jun-13 03:28N 39°32' E 002°38'918.7
2018-Jun-13 03:00N 39°25' E 002°30'12121.1
2018-Jun-12 21:15N 39°25' W 000°06'521.4
2018-Jun-12 20:59N 39°26' W 000°13'510.0
2018-Jun-12 20:30N 39°27' W 000°20'0 0.0
2018-Jun-12 19:59N 39°27' W 000°20'0 0.0
2018-Jun-12 19:29N 39°27' W 000°20'0 0.0
2018-Jun-12 18:59N 39°27' W 000°20'0 0.0
2018-Jun-12 18:29N 39°27' W 000°20'0 0.0
2018-Jun-12 17:59N 39°27' W 000°20'0 0.0
2018-Jun-12 17:29N 39°27' W 000°20'0 0.0
2018-Jun-12 17:00N 39°27' W 000°20'3 6.1
2018-Jun-12 16:30N 39°26' W 000°16'815.7
2018-Jun-12 16:00N 39°26' W 000°06'10721.2
2018-Jun-12 10:57N 39°25' E 002°13'921.3
2018-Jun-12 10:30N 39°25' E 002°25'1019.9
2018-Jun-12 10:00N 39°30' E 002°37'3 6.6
2018-Jun-12 09:30N 39°33' E 002°38'0 0.0
2018-Jun-12 08:59N 39°33' E 002°38'0 0.0
2018-Jun-12 08:29N 39°33' E 002°38'0 0.0
2018-Jun-12 07:59N 39°33' E 002°38'0 0.0
2018-Jun-12 07:29N 39°33' E 002°38'0 0.0
2018-Jun-12 06:59N 39°33' E 002°38'0 0.0
2018-Jun-12 06:29N 39°33' E 002°38'0 0.0
2018-Jun-12 05:59N 39°33' E 002°38'0 0.0
2018-Jun-12 05:31N 39°33' E 002°38'0 0.0
2018-Jun-12 05:01N 39°33' E 002°38'0 0.0
2018-Jun-12 04:30N 39°33' E 002°38'0 0.0
2018-Jun-12 04:00N 39°33' E 002°38'1 2.9
2018-Jun-12 03:30N 39°31' E 002°38'1019.2
2018-Jun-12 03:00N 39°25' E 002°29'2921.0
2018-Jun-12 01:38N 39°25' E 001°51'321.1
2018-Jun-12 01:30N 39°25' E 001°48'1021.1
2018-Jun-12 01:00N 39°24' E 001°35'1421.2
2018-Jun-12 00:21N 39°25' E 001°17'6921.4
2018-Jun-11 21:08N 39°26' W 000°13'319.9
2018-Jun-11 21:00N 39°26' W 000°16'3 6.1
2018-Jun-11 20:31N 39°27' W 000°20'0 0.0
2018-Jun-11 19:59N 39°27' W 000°20'0 0.0
2018-Jun-11 19:29N 39°27' W 000°20'0 0.0
2018-Jun-11 18:56N 39°27' W 000°20'0 0.0
2018-Jun-11 18:29N 39°27' W 000°20'0 0.0
2018-Jun-11 17:59N 39°27' W 000°20'0 0.0
2018-Jun-11 17:29N 39°27' W 000°20'0 0.9
2018-Jun-11 17:00N 39°27' W 000°19'4 7.5
2018-Jun-11 16:25N 39°26' W 000°13'11121.3
2018-Jun-11 11:13N 39°25' E 002°10'521.2
2018-Jun-11 10:58N 39°25' E 002°16'1020.9
2018-Jun-11 10:31N 39°25' E 002°29'1020.6
2018-Jun-11 10:00N 39°32' E 002°38'1 1.7
2018-Jun-11 09:30N 39°33' E 002°38'0 0.0
2018-Jun-11 08:59N 39°33' E 002°38'0 0.0
2018-Jun-11 08:29N 39°33' E 002°38'0 0.0
2018-Jun-11 07:59N 39°33' E 002°38'0 0.0
2018-Jun-11 07:23N 39°33' E 002°38'0 0.0
2018-Jun-11 06:59N 39°33' E 002°38'0 0.0
2018-Jun-11 06:29N 39°33' E 002°38'0 0.0
2018-Jun-11 05:59N 39°33' E 002°38'0 0.0
2018-Jun-11 05:30N 39°33' E 002°38'0 0.0
2018-Jun-11 04:59N 39°33' E 002°38'0 0.0
2018-Jun-11 04:30N 39°33' E 002°38'1 1.8
2018-Jun-11 04:00N 39°32' E 002°39'816.1
2018-Jun-11 03:30N 39°26' E 002°32'9817.6
2018-Jun-10 21:57N 41°03' E 002°11'920.5
2018-Jun-10 21:30N 41°12' E 002°11'917.6
2018-Jun-10 21:01N 41°21' E 002°10'0 0.6
2018-Jun-10 20:31N 41°21' E 002°10'0 0.0
2018-Jun-10 20:00N 41°21' E 002°10'0 0.0
2018-Jun-10 19:30N 41°21' E 002°10'0 0.0
2018-Jun-10 19:01N 41°21' E 002°10'0 0.0
2018-Jun-10 18:30N 41°21' E 002°10'0 0.0
2018-Jun-10 18:00N 41°21' E 002°10'0 0.0
2018-Jun-10 17:31N 41°21' E 002°10'0 0.0
2018-Jun-10 17:01N 41°21' E 002°10'0 0.0
2018-Jun-10 16:30N 41°21' E 002°10'0 0.0
2018-Jun-10 16:00N 41°21' E 002°10'0 0.0
2018-Jun-10 15:30N 41°21' E 002°10'0 0.0
2018-Jun-10 15:00N 41°21' E 002°10'0 0.0
2018-Jun-10 14:00N 41°21' E 002°10'0 0.0
2018-Jun-10 13:30N 41°21' E 002°10'0 0.0
2018-Jun-10 13:01N 41°21' E 002°10'0 0.0
2018-Jun-10 12:30N 41°21' E 002°10'0 0.0
2018-Jun-10 12:00N 41°21' E 002°10'0 0.0
2018-Jun-10 11:30N 41°21' E 002°10'0 0.0
2018-Jun-10 11:01N 41°21' E 002°10'0 0.0
2018-Jun-10 10:30N 41°21' E 002°10'0 0.0
2018-Jun-10 10:00N 41°21' E 002°10'0 0.0
2018-Jun-10 09:30N 41°21' E 002°10'0 0.0
2018-Jun-10 09:00N 41°21' E 002°10'0 0.0
2018-Jun-10 08:30N 41°21' E 002°10'0 0.0
2018-Jun-10 08:00N 41°21' E 002°10'0 0.0
2018-Jun-10 07:30N 41°21' E 002°10'0 0.0
2018-Jun-10 07:00N 41°21' E 002°10'0 0.0
2018-Jun-10 06:30N 41°21' E 002°10'0 0.0
2018-Jun-10 06:01N 41°21' E 002°10'0 0.0
2018-Jun-10 05:30N 41°21' E 002°10'0 0.0
2018-Jun-10 05:01N 41°21' E 002°10'0 0.0
2018-Jun-10 04:30N 41°21' E 002°10'0 0.0
2018-Jun-10 04:00N 41°21' E 002°10'0 0.0
2018-Jun-10 03:30N 41°21' E 002°10'0 0.0
2018-Jun-10 03:00N 41°21' E 002°10'0 0.0
2018-Jun-10 02:30N 41°21' E 002°10'0 0.0
2018-Jun-10 02:00N 41°21' E 002°10'0 0.0
2018-Jun-10 01:31N 41°21' E 002°10'0 0.0
2018-Jun-10 01:00N 41°21' E 002°10'0 0.0
2018-Jun-10 00:30N 41°21' E 002°10'0 0.0
2018-Jun-10 00:01N 41°21' E 002°10'0 0.0
2018-Jun-09 23:30N 41°21' E 002°10'0 0.0
2018-Jun-09 23:00N 41°21' E 002°10'0 0.0
2018-Jun-09 22:31N 41°21' E 002°10'0 0.0
2018-Jun-09 22:00N 41°21' E 002°10'0 0.0
2018-Jun-09 21:30N 41°21' E 002°10'0 0.0
2018-Jun-09 21:00N 41°21' E 002°10'0 0.0
2018-Jun-09 20:30N 41°21' E 002°10'0 0.0
2018-Jun-09 20:01N 41°21' E 002°10'  
Track history (hours):
 
Tides and Currents Weather Stations Pressure Air Temp Water Temp Dewpoint Dewpoint Depression Visibility Wind Speed Wind Dir Waves Ship Positions

Visemar One

Last reported at 2018-Jun-19 20:00 UTC. Time now 2018-Jun-19 20:00 UTC.
Position N 39°27' W 000°20'.

Length 186 m; draft 6.9 m.

Type: Ship. MMSI: 247281400.

Date/timePositionNaut miles runAvg speedWind from/ knotsBaromVisibWave heightAir tempDewpointWater temp
2018-Jun-19 20:00N 39°27' W 000°20'0 0.0
2018-Jun-19 19:30N 39°27' W 000°20'0 0.0
2018-Jun-19 19:00N 39°27' W 000°20'0 0.2
2018-Jun-19 18:30N 39°27' W 000°19'812.1
2018-Jun-19 17:53N 39°26' W 000°10'11022.2
2018-Jun-19 12:56N 39°25' E 002°12'921.5
2018-Jun-19 12:30N 39°24' E 002°24'1020.4
2018-Jun-19 12:00N 39°29' E 002°36'4 8.4
2018-Jun-19 11:30N 39°33' E 002°38'0 0.0
2018-Jun-19 11:00N 39°33' E 002°38'0 0.0
2018-Jun-19 10:30N 39°33' E 002°38'0 0.0
2018-Jun-19 10:00N 39°33' E 002°38'0 0.0
2018-Jun-19 09:30N 39°33' E 002°38'0 0.0
2018-Jun-19 08:58N 39°33' E 002°38'0 0.0
2018-Jun-19 08:28N 39°33' E 002°38'0 0.0
2018-Jun-19 07:58N 39°33' E 002°38'0 0.0
2018-Jun-19 07:28N 39°33' E 002°38'0 0.0
2018-Jun-19 06:58N 39°33' E 002°38'0 0.0
2018-Jun-19 06:28N 39°33' E 002°38'0 0.0
2018-Jun-19 05:58N 39°33' E 002°38'0 0.0
2018-Jun-19 05:28N 39°33' E 002°38'0 0.0
2018-Jun-19 05:00N 39°33' E 002°38'0 0.0
2018-Jun-19 04:30N 39°33' E 002°38'0 0.2
2018-Jun-19 03:56N 39°33' E 002°38'1 3.1
2018-Jun-19 03:30N 39°32' E 002°39'816.3
2018-Jun-19 03:00N 39°25' E 002°32'1020.3
2018-Jun-19 02:30N 39°25' E 002°19'12220.6
2018-Jun-18 20:35N 39°26' W 000°19'1 9.8
2018-Jun-18 20:30N 39°27' W 000°19'0 0.5
2018-Jun-18 19:56N 39°27' W 000°20'0 0.0
2018-Jun-18 19:29N 39°27' W 000°20'0 0.0
2018-Jun-18 18:59N 39°27' W 000°20'0 0.0
2018-Jun-18 18:29N 39°27' W 000°20'0 0.0
2018-Jun-18 17:59N 39°27' W 000°20'0 0.0
2018-Jun-18 17:29N 39°27' W 000°20'0 0.0
2018-Jun-18 16:59N 39°27' W 000°20'1 2.8
2018-Jun-18 16:31N 39°26' W 000°18'6621.2
2018-Jun-18 13:23N 39°26' E 001°08'4821.0
2018-Jun-18 11:07N 39°25' E 002°09'320.7
2018-Jun-18 10:59N 39°25' E 002°13'1020.8
2018-Jun-18 10:29N 39°26' E 002°26'919.6
2018-Jun-18 10:00N 39°30' E 002°37'3 6.0
2018-Jun-18 09:30N 39°33' E 002°38'0 0.0
2018-Jun-18 08:58N 39°33' E 002°38'0 0.0
2018-Jun-18 08:28N 39°33' E 002°38'0 0.0
2018-Jun-18 07:58N 39°33' E 002°38'0 0.0
2018-Jun-18 07:28N 39°33' E 002°38'0 0.0
2018-Jun-18 06:58N 39°33' E 002°38'0 0.0
2018-Jun-18 06:28N 39°33' E 002°38'0 0.0
2018-Jun-18 05:58N 39°33' E 002°38'0 0.0
2018-Jun-18 05:27N 39°33' E 002°38'0 0.0
2018-Jun-18 05:00N 39°33' E 002°38'0 0.0
2018-Jun-18 04:30N 39°33' E 002°38'0 0.8
2018-Jun-18 04:00N 39°33' E 002°38'816.0
2018-Jun-18 03:30N 39°26' E 002°33'4316.4
2018-Jun-18 00:52N 40°07' E 002°14'3819.2
2018-Jun-17 22:53N 40°45' E 002°12'719.6
2018-Jun-17 22:30N 40°53' E 002°12'1019.7
2018-Jun-17 21:59N 41°03' E 002°11'919.4
2018-Jun-17 21:31N 41°12' E 002°11'917.0
2018-Jun-17 21:00N 41°20' E 002°10'0 0.8
2018-Jun-17 20:28N 41°21' E 002°10'0 0.0
2018-Jun-17 19:58N 41°21' E 002°10'0 0.0
2018-Jun-17 19:28N 41°21' E 002°10'0 0.0
2018-Jun-17 18:58N 41°21' E 002°10'0 0.0
2018-Jun-17 18:28N 41°21' E 002°10'0 0.0
2018-Jun-17 17:58N 41°21' E 002°10'0 0.0
2018-Jun-17 17:28N 41°21' E 002°10'0 0.0
2018-Jun-17 16:58N 41°21' E 002°10'0 0.0
2018-Jun-17 16:28N 41°21' E 002°10'0 0.0
2018-Jun-17 15:58N 41°21' E 002°10'0 0.0
2018-Jun-17 15:28N 41°21' E 002°10'0 0.0
2018-Jun-17 14:58N 41°21' E 002°10'0 0.0
2018-Jun-17 14:28N 41°21' E 002°10'0 0.0
2018-Jun-17 13:58N 41°21' E 002°10'0 0.0
2018-Jun-17 13:28N 41°21' E 002°10'0 0.0
2018-Jun-17 12:58N 41°21' E 002°10'0 0.0
2018-Jun-17 12:28N 41°21' E 002°10'0 0.0
2018-Jun-17 11:58N 41°21' E 002°10'0 0.0
2018-Jun-17 11:28N 41°21' E 002°10'0 0.0
2018-Jun-17 10:58N 41°21' E 002°10'0 0.0
2018-Jun-17 10:28N 41°21' E 002°10'0 0.0
2018-Jun-17 09:58N 41°21' E 002°10'0 0.0
2018-Jun-17 09:28N 41°21' E 002°10'0 0.0
2018-Jun-17 08:58N 41°21' E 002°10'0 0.0
2018-Jun-17 08:28N 41°21' E 002°10'0 0.0
2018-Jun-17 07:58N 41°21' E 002°10'0 0.0
2018-Jun-17 07:28N 41°21' E 002°10'0 0.0
2018-Jun-17 06:58N 41°21' E 002°10'0 0.0
2018-Jun-17 06:28N 41°21' E 002°10'0 0.0
2018-Jun-17 05:58N 41°21' E 002°10'0 0.0
2018-Jun-17 05:28N 41°21' E 002°10'0 0.0
2018-Jun-17 04:58N 41°21' E 002°10'0 0.0
2018-Jun-17 04:28N 41°21' E 002°10'0 0.0
2018-Jun-17 03:58N 41°21' E 002°10'0 0.0
2018-Jun-17 03:28N 41°21' E 002°10'0 0.0
2018-Jun-17 02:58N 41°21' E 002°10'0 0.0
2018-Jun-17 02:28N 41°21' E 002°10'0 0.0
2018-Jun-17 01:58N 41°21' E 002°10'0 0.0
2018-Jun-17 01:28N 41°21' E 002°10'0 0.0
2018-Jun-17 00:58N 41°21' E 002°10'0 0.0
2018-Jun-17 00:28N 41°21' E 002°10'0 0.0
2018-Jun-16 23:58N 41°21' E 002°10'0 0.0
2018-Jun-16 23:28N 41°21' E 002°10'0 0.0
2018-Jun-16 22:58N 41°21' E 002°10'0 0.0
2018-Jun-16 22:28N 41°21' E 002°10'0 0.0
2018-Jun-16 21:58N 41°21' E 002°10'0 0.0
2018-Jun-16 21:28N 41°21' E 002°10'0 0.0
2018-Jun-16 20:58N 41°21' E 002°10'0 0.0
2018-Jun-16 20:28N 41°21' E 002°10'0 0.0
2018-Jun-16 19:58N 41°21' E 002°10'0 0.0
2018-Jun-16 19:28N 41°21' E 002°10'0 0.0
2018-Jun-16 18:58N 41°21' E 002°10'0 0.0
2018-Jun-16 18:28N 41°21' E 002°10'0 0.0
2018-Jun-16 17:58N 41°21' E 002°10'0 0.0
2018-Jun-16 17:30N 41°21' E 002°10'2 4.4
2018-Jun-16 17:00N 41°19' E 002°10'815.4
2018-Jun-16 16:30N 41°11' E 002°11'1620.9
2018-Jun-16 15:45N 40°55' E 002°12'3620.8
2018-Jun-16 14:02N 40°20' E 002°17'121.6
2018-Jun-16 14:00N 40°19' E 002°17'4920.1
2018-Jun-16 11:34N 39°30' E 002°21'220.5
2018-Jun-16 11:29N 39°29' E 002°23'917.7
2018-Jun-16 11:00N 39°27' E 002°33'714.4
2018-Jun-16 10:30N 39°33' E 002°38'0 0.2
2018-Jun-16 10:00N 39°33' E 002°38'0 0.0
2018-Jun-16 09:30N 39°33' E 002°38'0 0.0
2018-Jun-16 08:57N 39°33' E 002°38'0 0.0
2018-Jun-16 08:30N 39°33' E 002°38'0 0.0
2018-Jun-16 08:00N 39°33' E 002°38'0 0.0
2018-Jun-16 07:30N 39°33' E 002°38'0 0.0
2018-Jun-16 07:00N 39°33' E 002°38'0 0.0
2018-Jun-16 06:30N 39°33' E 002°38'0 0.0
2018-Jun-16 06:00N 39°33' E 002°38'0 0.0
2018-Jun-16 05:29N 39°33' E 002°38'0 0.0
2018-Jun-16 05:00N 39°33' E 002°38'0 0.0
2018-Jun-16 04:25N 39°33' E 002°38'0 0.0
2018-Jun-16 04:00N 39°33' E 002°38'1 2.5
2018-Jun-16 03:30N 39°32' E 002°39'918.7
2018-Jun-16 03:00N 39°26' E 002°29'1220.7
2018-Jun-16 02:24N 39°26' E 002°13'2620.8
2018-Jun-16 01:10N 39°25' E 001°40'420.7
2018-Jun-16 00:57N 39°25' E 001°34'1120.6
2018-Jun-16 00:26N 39°25' E 001°21'920.6
2018-Jun-16 00:00N 39°25' E 001°09'1320.8
2018-Jun-15 23:24N 39°25' E 000°53'5120.8
2018-Jun-15 20:57N 39°26' W 000°13'511.4
2018-Jun-15 20:30N 39°27' W 000°19'0 0.1
2018-Jun-15 20:01N 39°27' W 000°20'0 0.0
2018-Jun-15 19:31N 39°27' W 000°20'0 0.0
2018-Jun-15 19:01N 39°27' W 000°20'0 0.0
2018-Jun-15 18:31N 39°27' W 000°20'0 0.0
2018-Jun-15 18:01N 39°27' W 000°20'0 0.0
2018-Jun-15 17:31N 39°27' W 000°20'0 0.0
2018-Jun-15 17:01N 39°27' W 000°20'2 4.5
2018-Jun-15 16:30N 39°26' W 000°17'917.5
2018-Jun-15 16:00N 39°25' W 000°06'4521.4
2018-Jun-15 13:55N 39°25' E 000°52'1021.6
2018-Jun-15 13:27N 39°25' E 001°05'1321.5
2018-Jun-15 12:52N 39°25' E 001°21'921.4
2018-Jun-15 12:27N 39°25' E 001°33'3321.0
2018-Jun-15 10:54N 39°25' E 002°15'820.5
2018-Jun-15 10:30N 39°25' E 002°26'1019.6
2018-Jun-15 10:00N 39°30' E 002°37'3 6.4
2018-Jun-15 09:30N 39°33' E 002°38'0 0.0
2018-Jun-15 09:00N 39°33' E 002°38'0 0.0
2018-Jun-15 08:30N 39°33' E 002°38'0 0.0
2018-Jun-15 08:00N 39°33' E 002°38'0 0.0
2018-Jun-15 07:30N 39°33' E 002°38'0 0.0
2018-Jun-15 07:00N 39°33' E 002°38'0 0.0
2018-Jun-15 06:24N 39°33' E 002°38'0 0.0
2018-Jun-15 06:00N 39°33' E 002°38'0 0.0
2018-Jun-15 05:30N 39°33' E 002°38'0 0.0
2018-Jun-15 05:00N 39°33' E 002°38'0 0.0
2018-Jun-15 04:30N 39°33' E 002°38'0 0.0
2018-Jun-15 04:00N 39°33' E 002°38'1 1.5
2018-Jun-15 03:30N 39°33' E 002°39'1019.1
2018-Jun-15 03:00N 39°26' E 002°30'12520.4
2018-Jun-14 20:51N 39°26' W 000°12'515.8
2018-Jun-14 20:30N 39°27' W 000°19'0 0.5
2018-Jun-14 19:59N 39°27' W 000°20'0 0.0
2018-Jun-14 19:29N 39°27' W 000°20'0 0.0
2018-Jun-14 18:59N 39°27' W 000°20'0 0.0
2018-Jun-14 18:29N 39°27' W 000°20'0 0.0
2018-Jun-14 17:59N 39°27' W 000°20'0 0.0
2018-Jun-14 17:29N 39°27' W 000°20'0 0.0
2018-Jun-14 16:59N 39°27' W 000°20'1 2.3
2018-Jun-14 16:30N 39°26' W 000°18'11620.7
2018-Jun-14 10:55N 39°25' E 002°11'920.8
2018-Jun-14 10:30N 39°25' E 002°23'1020.0
2018-Jun-14 10:00N 39°28' E 002°35'510.2
2018-Jun-14 09:30N 39°33' E 002°38'0 0.0
2018-Jun-14 09:00N 39°33' E 002°38'0 0.0
2018-Jun-14 08:28N 39°33' E 002°38'0 0.0
2018-Jun-14 08:00N 39°33' E 002°38'0 0.0
2018-Jun-14 07:30N 39°33' E 002°38'0 0.0
2018-Jun-14 07:00N 39°33' E 002°38'0 0.0
2018-Jun-14 06:30N 39°33' E 002°38'0 0.0
2018-Jun-14 06:00N 39°33' E 002°38'0 0.0
2018-Jun-14 05:30N 39°33' E 002°38'0 0.0
2018-Jun-14 05:00N 39°33' E 002°38'0 0.0
2018-Jun-14 04:29N 39°33' E 002°38'0 0.0
2018-Jun-14 04:00N 39°33' E 002°38'1 2.4
2018-Jun-14 03:30N 39°32' E 002°38'1020.0
2018-Jun-14 03:00N 39°26' E 002°28'12520.5
2018-Jun-13 20:53N 39°25' W 000°14'411.4
2018-Jun-13 20:31N 39°27' W 000°19'0 0.1
2018-Jun-13 19:58N 39°27' W 000°20'0 0.1
2018-Jun-13 19:28N 39°27' W 000°20'0 0.1
2018-Jun-13 18:58N 39°27' W 000°20'0 0.0
2018-Jun-13 18:28N 39°27' W 000°20'0 0.0
2018-Jun-13 17:58N 39°27' W 000°20'0 0.0
2018-Jun-13 17:28N 39°27' W 000°20'0 0.0
2018-Jun-13 17:00N 39°27' W 000°20'2 4.4
2018-Jun-13 16:30N 39°26' W 000°17'11620.5
2018-Jun-13 10:53N 39°25' E 002°12'820.8
2018-Jun-13 10:30N 39°24' E 002°23'1019.5
2018-Jun-13 10:00N 39°28' E 002°34'611.5
2018-Jun-13 09:30N 39°33' E 002°38'0 0.0
2018-Jun-13 08:58N 39°33' E 002°38'0 0.0
2018-Jun-13 08:28N 39°33' E 002°38'0 0.0
2018-Jun-13 07:58N 39°33' E 002°38'0 0.0
2018-Jun-13 07:31N 39°33' E 002°38'0 0.0
2018-Jun-13 06:58N 39°33' E 002°38'0 0.0
2018-Jun-13 06:31N 39°33' E 002°38'0 0.0
2018-Jun-13 05:58N 39°33' E 002°38'0 0.0
2018-Jun-13 05:30N 39°33' E 002°38'0 0.0
2018-Jun-13 04:59N 39°33' E 002°38'0 0.0
2018-Jun-13 04:30N 39°33' E 002°38'0 0.0
2018-Jun-13 04:00N 39°33' E 002°38'1 1.8
2018-Jun-13 03:28N 39°32' E 002°38'918.7
2018-Jun-13 03:00N 39°25' E 002°30'12121.1
2018-Jun-12 21:15N 39°25' W 000°06'521.4
2018-Jun-12 20:59N 39°26' W 000°13'510.0
2018-Jun-12 20:30N 39°27' W 000°20'0 0.0
2018-Jun-12 19:59N 39°27' W 000°20'0 0.0
2018-Jun-12 19:29N 39°27' W 000°20'0 0.0
2018-Jun-12 18:59N 39°27' W 000°20'0 0.0
2018-Jun-12 18:29N 39°27' W 000°20'0 0.0
2018-Jun-12 17:59N 39°27' W 000°20'0 0.0
2018-Jun-12 17:29N 39°27' W 000°20'0 0.0
2018-Jun-12 17:00N 39°27' W 000°20'3 6.1
2018-Jun-12 16:30N 39°26' W 000°16'815.7
2018-Jun-12 16:00N 39°26' W 000°06'10721.2
2018-Jun-12 10:57N 39°25' E 002°13'921.3
2018-Jun-12 10:30N 39°25' E 002°25'1019.9
2018-Jun-12 10:00N 39°30' E 002°37'3 6.6
2018-Jun-12 09:30N 39°33' E 002°38'0 0.0
2018-Jun-12 08:59N 39°33' E 002°38'0 0.0
2018-Jun-12 08:29N 39°33' E 002°38'0 0.0
2018-Jun-12 07:59N 39°33' E 002°38'0 0.0
2018-Jun-12 07:29N 39°33' E 002°38'0 0.0
2018-Jun-12 06:59N 39°33' E 002°38'0 0.0
2018-Jun-12 06:29N 39°33' E 002°38'0 0.0
2018-Jun-12 05:59N 39°33' E 002°38'0 0.0
2018-Jun-12 05:31N 39°33' E 002°38'0 0.0
2018-Jun-12 05:01N 39°33' E 002°38'0 0.0
2018-Jun-12 04:30N 39°33' E 002°38'0 0.0
2018-Jun-12 04:00N 39°33' E 002°38'1 2.9
2018-Jun-12 03:30N 39°31' E 002°38'1019.2
2018-Jun-12 03:00N 39°25' E 002°29'2921.0
2018-Jun-12 01:38N 39°25' E 001°51'321.1
2018-Jun-12 01:30N 39°25' E 001°48'1021.1
2018-Jun-12 01:00N 39°24' E 001°35'1421.2
2018-Jun-12 00:21N 39°25' E 001°17'6921.4
2018-Jun-11 21:08N 39°26' W 000°13'319.9
2018-Jun-11 21:00N 39°26' W 000°16'3 6.1
2018-Jun-11 20:31N 39°27' W 000°20'0 0.0
2018-Jun-11 19:59N 39°27' W 000°20'0 0.0
2018-Jun-11 19:29N 39°27' W 000°20'0 0.0
2018-Jun-11 18:56N 39°27' W 000°20'0 0.0
2018-Jun-11 18:29N 39°27' W 000°20'0 0.0
2018-Jun-11 17:59N 39°27' W 000°20'0 0.0
2018-Jun-11 17:29N 39°27' W 000°20'0 0.9
2018-Jun-11 17:00N 39°27' W 000°19'4 7.5
2018-Jun-11 16:25N 39°26' W 000°13'11121.3
2018-Jun-11 11:13N 39°25' E 002°10'521.2
2018-Jun-11 10:58N 39°25' E 002°16'1020.9
2018-Jun-11 10:31N 39°25' E 002°29'1020.6
2018-Jun-11 10:00N 39°32' E 002°38'1 1.7
2018-Jun-11 09:30N 39°33' E 002°38'0 0.0
2018-Jun-11 08:59N 39°33' E 002°38'0 0.0
2018-Jun-11 08:29N 39°33' E 002°38'0 0.0
2018-Jun-11 07:59N 39°33' E 002°38'0 0.0
2018-Jun-11 07:23N 39°33' E 002°38'0 0.0
2018-Jun-11 06:59N 39°33' E 002°38'0 0.0
2018-Jun-11 06:29N 39°33' E 002°38'0 0.0
2018-Jun-11 05:59N 39°33' E 002°38'0 0.0
2018-Jun-11 05:30N 39°33' E 002°38'0 0.0
2018-Jun-11 04:59N 39°33' E 002°38'0 0.0
2018-Jun-11 04:30N 39°33' E 002°38'1 1.8
2018-Jun-11 04:00N 39°32' E 002°39'816.1
2018-Jun-11 03:30N 39°26' E 002°32'9817.6
2018-Jun-10 21:57N 41°03' E 002°11'920.5
2018-Jun-10 21:30N 41°12' E 002°11'917.6
2018-Jun-10 21:01N 41°21' E 002°10'0 0.6
2018-Jun-10 20:31N 41°21' E 002°10'0 0.0
2018-Jun-10 20:00N 41°21' E 002°10'0 0.0
2018-Jun-10 19:30N 41°21' E 002°10'0 0.0
2018-Jun-10 19:01N 41°21' E 002°10'0 0.0
2018-Jun-10 18:30N 41°21' E 002°10'0 0.0
2018-Jun-10 18:00N 41°21' E 002°10'0 0.0
2018-Jun-10 17:31N 41°21' E 002°10'0 0.0
2018-Jun-10 17:01N 41°21' E 002°10'0 0.0
2018-Jun-10 16:30N 41°21' E 002°10'0 0.0
2018-Jun-10 16:00N 41°21' E 002°10'0 0.0
2018-Jun-10 15:30N 41°21' E 002°10'0 0.0
2018-Jun-10 15:00N 41°21' E 002°10'0 0.0
2018-Jun-10 14:00N 41°21' E 002°10'0 0.0
2018-Jun-10 13:30N 41°21' E 002°10'0 0.0
2018-Jun-10 13:01N 41°21' E 002°10'0 0.0
2018-Jun-10 12:30N 41°21' E 002°10'0 0.0
2018-Jun-10 12:00N 41°21' E 002°10'0 0.0
2018-Jun-10 11:30N 41°21' E 002°10'0 0.0
2018-Jun-10 11:01N 41°21' E 002°10'0 0.0
2018-Jun-10 10:30N 41°21' E 002°10'0 0.0
2018-Jun-10 10:00N 41°21' E 002°10'0 0.0
2018-Jun-10 09:30N 41°21' E 002°10'0 0.0
2018-Jun-10 09:00N 41°21' E 002°10'0 0.0
2018-Jun-10 08:30N 41°21' E 002°10'0 0.0
2018-Jun-10 08:00N 41°21' E 002°10'0 0.0
2018-Jun-10 07:30N 41°21' E 002°10'0 0.0
2018-Jun-10 07:00N 41°21' E 002°10'0 0.0
2018-Jun-10 06:30N 41°21' E 002°10'0 0.0
2018-Jun-10 06:01N 41°21' E 002°10'0 0.0
2018-Jun-10 05:30N 41°21' E 002°10'0 0.0
2018-Jun-10 05:01N 41°21' E 002°10'0 0.0
2018-Jun-10 04:30N 41°21' E 002°10'0 0.0
2018-Jun-10 04:00N 41°21' E 002°10'0 0.0
2018-Jun-10 03:30N 41°21' E 002°10'0 0.0
2018-Jun-10 03:00N 41°21' E 002°10'0 0.0
2018-Jun-10 02:30N 41°21' E 002°10'0 0.0
2018-Jun-10 02:00N 41°21' E 002°10'0 0.0
2018-Jun-10 01:31N 41°21' E 002°10'0 0.0
2018-Jun-10 01:00N 41°21' E 002°10'0 0.0
2018-Jun-10 00:30N 41°21' E 002°10'0 0.0
2018-Jun-10 00:01N 41°21' E 002°10'0 0.0
2018-Jun-09 23:30N 41°21' E 002°10'0 0.0
2018-Jun-09 23:00N 41°21' E 002°10'0 0.0
2018-Jun-09 22:31N 41°21' E 002°10'0 0.0
2018-Jun-09 22:00N 41°21' E 002°10'0 0.0
2018-Jun-09 21:30N 41°21' E 002°10'0 0.0
2018-Jun-09 21:00N 41°21' E 002°10'0 0.0
2018-Jun-09 20:30N 41°21' E 002°10'0 0.0
2018-Jun-09 20:01N 41°21' E 002°10'  

Dump ship's entire track history